createdAt,value
2022-12-11T00:00:22.669Z,-2.09
2022-12-11T00:02:52.437Z,-2.16
2022-12-11T00:05:22.222Z,-2.16
2022-12-11T00:07:51.973Z,-2.09
2022-12-11T00:10:21.762Z,-2.20
2022-12-11T00:12:51.464Z,-2.02
2022-12-11T00:15:23.769Z,-2.17
2022-12-11T00:17:53.460Z,-2.20
2022-12-11T00:20:23.264Z,-1.73
2022-12-11T00:22:52.969Z,-1.17
2022-12-11T00:25:22.668Z,-1.00
2022-12-11T00:27:52.350Z,-1.56
2022-12-11T00:30:24.706Z,-1.69
2022-12-11T00:32:54.686Z,-1.85
2022-12-11T00:35:24.459Z,-1.06
2022-12-11T00:37:54.143Z,-1.16
2022-12-11T00:40:23.827Z,-1.93
2022-12-11T00:42:53.771Z,-1.39
2022-12-11T00:45:26.096Z,-1.60
2022-12-11T00:47:55.908Z,-2.17
2022-12-11T00:50:25.862Z,-2.51
2022-12-11T00:52:55.594Z,-2.22
2022-12-11T00:55:25.562Z,-2.08
2022-12-11T00:57:55.247Z,-2.08
2022-12-11T01:00:27.877Z,-2.32
2022-12-11T01:02:57.594Z,-2.31
2022-12-11T01:05:27.298Z,-2.07
2022-12-11T01:07:57.088Z,-1.98
2022-12-11T01:10:27.126Z,-2.01
2022-12-11T01:12:59.552Z,-2.42
2022-12-11T01:15:37.425Z,-1.78
2022-12-11T01:18:09.753Z,-1.99
2022-12-11T01:20:41.058Z,-1.99
2022-12-11T01:23:11.059Z,-1.69
2022-12-11T01:25:40.994Z,-1.80
2022-12-11T01:28:11.208Z,-1.89
2022-12-11T01:30:44.381Z,-1.38
2022-12-11T01:33:14.082Z,-1.51
2022-12-11T01:35:44.036Z,-1.70
2022-12-11T01:38:13.823Z,-1.42
2022-12-11T01:40:50.456Z,-1.02
2022-12-11T01:43:21.720Z,-0.57
2022-12-11T01:45:54.170Z,-1.45
2022-12-11T01:48:26.662Z,-2.24
2022-12-11T01:50:59.136Z,-2.28
2022-12-11T01:53:33.389Z,-1.56
2022-12-11T01:56:03.711Z,-1.71
2022-12-11T01:58:36.728Z,-1.58
2022-12-11T02:01:09.093Z,-1.62
2022-12-11T02:03:38.794Z,-2.01
2022-12-11T02:06:08.935Z,-1.20
2022-12-11T02:08:38.638Z,-1.00
2022-12-11T02:11:16.544Z,-1.06
2022-12-11T02:13:52.710Z,-0.82
2022-12-11T02:16:36.629Z,-0.84
2022-12-11T02:19:19.797Z,-1.97
2022-12-11T02:21:53.591Z,-1.49
2022-12-11T02:24:47.671Z,-1.43
2022-12-11T02:27:34.954Z,-1.41
2022-12-11T02:30:10.746Z,-1.19
2022-12-11T02:32:48.152Z,-1.16
2022-12-11T02:35:21.968Z,-0.77
2022-12-11T02:37:57.485Z,-0.90
2022-12-11T02:40:32.908Z,-0.50
2022-12-11T02:43:07.533Z,-0.49
2022-12-11T02:45:43.789Z,-0.16
2022-12-11T02:48:14.666Z,-1.06
2022-12-11T02:50:48.978Z,-0.28
2022-12-11T02:53:22.314Z,-0.36
2022-12-11T02:55:57.133Z,-0.93
2022-12-11T02:58:31.022Z,-0.90
2022-12-11T03:01:03.568Z,-1.14
2022-12-11T03:03:33.488Z,-1.34
2022-12-11T03:06:04.037Z,-1.27
2022-12-11T03:08:34.692Z,-0.94
2022-12-11T03:11:04.386Z,-0.54
2022-12-11T03:13:34.348Z,-1.27
2022-12-11T03:16:15.205Z,-1.33
2022-12-11T03:18:54.258Z,-1.34
2022-12-11T03:21:30.353Z,-1.25
2022-12-11T03:24:06.324Z,-1.32
2022-12-11T03:26:41.053Z,-1.22
2022-12-11T03:29:19.154Z,-1.82
2022-12-11T03:31:59.372Z,-0.88
2022-12-11T03:34:34.194Z,-0.69
2022-12-11T03:37:05.783Z,-0.83
2022-12-11T03:39:41.249Z,-0.45
2022-12-11T03:42:14.621Z,-1.31
2022-12-11T03:44:47.647Z,-1.61
2022-12-11T03:47:23.273Z,-1.72
2022-12-11T03:49:53.508Z,-0.81
2022-12-11T03:52:23.816Z,-0.82
2022-12-11T03:54:54.111Z,-1.34
2022-12-11T03:57:28.591Z,-1.46
2022-12-11T03:59:58.316Z,-1.66
2022-12-11T04:02:30.862Z,-1.01
2022-12-11T04:05:00.567Z,-1.21
2022-12-11T04:07:31.326Z,-1.46
2022-12-11T04:10:01.033Z,-0.95
2022-12-11T04:12:30.775Z,-0.66
2022-12-11T04:15:06.247Z,-1.35
2022-12-11T04:17:51.960Z,-1.07
2022-12-11T04:20:34.838Z,-0.75
2022-12-11T04:23:19.804Z,-0.66
2022-12-11T04:25:49.530Z,-1.54
2022-12-11T04:28:19.331Z,-1.00
2022-12-11T04:30:52.293Z,-0.45
2022-12-11T04:33:24.702Z,-1.16
2022-12-11T04:35:54.419Z,-1.46
2022-12-11T04:38:24.121Z,-1.32
2022-12-11T04:41:00.647Z,-0.67
2022-12-11T04:43:30.784Z,-1.75
2022-12-11T04:46:05.030Z,-1.36
2022-12-11T04:48:37.690Z,-1.30
2022-12-11T04:51:08.801Z,-0.43
2022-12-11T04:53:39.210Z,-0.69
2022-12-11T04:56:10.639Z,-1.29
2022-12-11T04:58:40.815Z,-2.02
2022-12-11T05:01:11.323Z,-1.77
2022-12-11T05:03:44.770Z,-1.19
2022-12-11T05:06:15.555Z,-1.52
2022-12-11T05:08:46.228Z,-1.46
2022-12-11T05:11:17.821Z,-1.58
2022-12-11T05:13:48.305Z,-1.50
2022-12-11T05:16:19.671Z,-1.61
2022-12-11T05:18:52.036Z,-2.10
2022-12-11T05:21:21.725Z,-1.74
2022-12-11T05:23:51.478Z,-1.97
2022-12-11T05:26:22.811Z,-2.21
2022-12-11T05:28:54.828Z,-2.22
2022-12-11T05:31:26.310Z,-2.18
2022-12-11T05:33:58.689Z,-2.31
2022-12-11T05:36:33.903Z,-2.28
2022-12-11T05:39:04.989Z,-2.53
2022-12-11T05:41:35.752Z,-2.39
2022-12-11T05:44:05.959Z,-2.02
2022-12-11T05:46:35.761Z,-1.81
2022-12-11T05:49:08.661Z,-1.74
2022-12-11T05:51:39.681Z,-1.73
2022-12-11T05:54:09.411Z,-2.09
2022-12-11T05:56:39.782Z,-2.44
2022-12-11T05:59:10.073Z,-2.64
2022-12-11T06:01:42.372Z,-2.39
2022-12-11T06:04:15.444Z,-2.74
2022-12-11T06:06:45.696Z,-2.20
2022-12-11T06:09:17.061Z,-1.96
2022-12-11T06:11:47.164Z,-2.39
2022-12-11T06:14:16.911Z,-1.88
2022-12-11T06:16:46.832Z,-2.46
2022-12-11T06:19:20.277Z,-1.60
2022-12-11T06:21:50.202Z,-1.83
2022-12-11T06:24:20.123Z,-2.15
2022-12-11T06:26:49.842Z,-1.63
2022-12-11T06:29:19.714Z,-1.25
2022-12-11T06:31:49.482Z,-0.96
2022-12-11T06:34:21.950Z,-1.17
2022-12-11T06:36:52.975Z,-1.87
2022-12-11T06:39:22.995Z,-0.92
2022-12-11T06:41:52.717Z,-0.92
2022-12-11T06:44:22.490Z,-1.22
2022-12-11T06:46:52.189Z,-1.12
2022-12-11T06:49:24.720Z,-1.94
2022-12-11T06:51:54.439Z,-1.17
2022-12-11T06:54:28.145Z,-1.41
2022-12-11T06:56:58.021Z,-1.28
2022-12-11T06:59:27.766Z,-1.70
2022-12-11T07:01:57.497Z,-1.12
2022-12-11T07:04:30.741Z,-0.66
2022-12-11T07:07:00.449Z,-1.53
2022-12-11T07:09:30.247Z,-1.48
2022-12-11T07:11:59.939Z,-1.57
2022-12-11T07:14:29.711Z,-0.92
2022-12-11T07:16:59.810Z,-1.53
2022-12-11T07:19:32.287Z,-2.08
2022-12-11T07:22:02.009Z,-1.43
2022-12-11T07:24:31.682Z,-1.57
2022-12-11T07:27:01.584Z,-1.22
2022-12-11T07:29:31.294Z,-0.75
2022-12-11T07:32:01.064Z,-1.63
2022-12-11T07:34:33.469Z,-1.87
2022-12-11T07:37:03.183Z,-1.26
2022-12-11T07:39:32.888Z,-1.19
2022-12-11T07:42:02.808Z,-1.58
2022-12-11T07:44:33.144Z,-1.42
2022-12-11T07:47:02.823Z,-1.29
2022-12-11T07:49:35.243Z,-1.08
2022-12-11T07:52:04.896Z,-0.58
2022-12-11T07:54:34.594Z,-0.72
2022-12-11T07:57:05.511Z,-0.80
2022-12-11T07:59:37.876Z,-1.94
2022-12-11T08:02:07.600Z,-1.82
2022-12-11T08:04:40.038Z,-2.04
2022-12-11T08:07:09.797Z,-2.30
2022-12-11T08:09:40.034Z,-2.45
2022-12-11T08:12:09.859Z,-2.35
2022-12-11T08:14:40.688Z,-1.79
2022-12-11T08:17:10.442Z,-1.97
2022-12-11T08:19:42.720Z,-2.57
2022-12-11T08:22:14.514Z,-2.52
2022-12-11T08:24:44.505Z,-1.47
2022-12-11T08:27:14.161Z,-2.13
2022-12-11T08:29:43.911Z,-2.27
2022-12-11T08:32:14.053Z,-1.90
2022-12-11T08:34:46.544Z,-1.78
2022-12-11T08:37:16.366Z,-1.38
2022-12-11T08:39:47.073Z,-2.06
2022-12-11T08:42:16.785Z,-1.13
2022-12-11T08:44:46.566Z,-1.71
2022-12-11T08:47:16.285Z,-2.17
2022-12-11T08:49:48.632Z,-1.54
2022-12-11T08:52:18.332Z,-1.79
2022-12-11T08:54:48.402Z,-2.23
2022-12-11T08:57:18.145Z,-2.03
2022-12-11T08:59:47.905Z,-1.25
2022-12-11T09:02:17.660Z,-1.15
2022-12-11T09:04:50.630Z,-0.77
2022-12-11T09:07:20.440Z,-1.13
2022-12-11T09:09:50.284Z,-2.02
2022-12-11T09:12:20.027Z,-1.64
2022-12-11T09:14:49.929Z,-1.33
2022-12-11T09:17:19.641Z,-2.19
2022-12-11T09:19:52.038Z,-1.51
2022-12-11T09:22:21.796Z,-2.49
2022-12-11T09:24:51.798Z,-1.15
2022-12-11T09:27:22.243Z,-1.46
2022-12-11T09:29:52.005Z,-1.18
2022-12-11T09:32:21.782Z,-1.29
2022-12-11T09:34:55.653Z,-0.66
2022-12-11T09:37:25.390Z,-0.54
2022-12-11T09:39:55.151Z,-0.45
2022-12-11T09:42:35.542Z,-0.81
2022-12-11T09:45:07.114Z,-0.80
2022-12-11T09:47:41.849Z,-0.99
2022-12-11T09:50:21.039Z,-0.56
2022-12-11T09:53:02.658Z,-0.81
2022-12-11T09:55:39.653Z,-0.49
2022-12-11T09:58:20.748Z,-0.84
2022-12-11T10:00:55.602Z,-1.17
2022-12-11T10:04:05.749Z,-1.42
2022-12-11T10:06:45.151Z,-1.42
2022-12-11T10:09:21.747Z,-1.14
2022-12-11T10:12:02.898Z,-1.03
2022-12-11T10:14:47.790Z,-0.46
2022-12-11T10:17:23.466Z,-0.54
2022-12-11T10:19:54.223Z,-0.54
2022-12-11T10:22:30.484Z,-0.88
2022-12-11T10:25:11.650Z,-0.27
2022-12-11T10:27:44.787Z,-0.61
2022-12-11T10:30:19.368Z,-0.12
2022-12-11T10:33:01.976Z,-0.67
2022-12-11T10:35:39.487Z,-0.58
2022-12-11T10:38:19.313Z,-0.90
2022-12-11T10:40:52.567Z,-1.17
2022-12-11T10:43:22.355Z,-0.61
2022-12-11T10:45:56.160Z,-0.47
2022-12-11T10:48:25.979Z,-0.68
2022-12-11T10:51:02.779Z,-0.45
2022-12-11T10:53:37.555Z,-0.80
2022-12-11T10:56:08.022Z,-1.02
2022-12-11T10:58:43.111Z,-1.39
2022-12-11T11:01:17.298Z,-0.52
2022-12-11T11:03:58.372Z,-0.51
2022-12-11T11:06:29.184Z,-0.59
2022-12-11T11:09:03.242Z,-0.57
2022-12-11T11:11:35.194Z,-0.75
2022-12-11T11:14:16.970Z,-0.56
2022-12-11T11:16:48.500Z,-0.58
2022-12-11T11:19:23.596Z,-0.68
2022-12-11T11:21:55.454Z,-0.67
2022-12-11T11:24:33.034Z,-0.78
2022-12-11T11:27:18.527Z,-0.78
2022-12-11T11:29:52.995Z,-0.66
2022-12-11T11:32:26.454Z,-0.52
2022-12-11T11:34:56.236Z,-0.49
2022-12-11T11:37:30.089Z,-0.16
2022-12-11T11:40:09.173Z,-0.61
2022-12-11T11:42:47.612Z,-0.69
2022-12-11T11:45:23.514Z,-0.34
2022-12-11T11:48:07.740Z,-0.08
2022-12-11T11:50:46.725Z,-0.19
2022-12-11T11:53:19.981Z,-0.54
2022-12-11T11:56:02.012Z,-0.46
2022-12-11T11:58:41.948Z,-0.74
2022-12-11T12:01:17.461Z,-0.21
2022-12-11T12:03:49.204Z,-0.40
2022-12-11T12:06:32.096Z,-0.01
2022-12-11T12:09:13.060Z,-0.17
2022-12-11T12:11:52.262Z,-0.54
2022-12-11T12:17:26.799Z,-0.12
2022-12-11T12:20:06.210Z,0.01
2022-12-11T12:23:02.253Z,0.44
2022-12-11T12:25:38.827Z,0.37
2022-12-11T12:28:22.175Z,0.22
2022-12-11T12:31:06.026Z,0.10
2022-12-11T12:33:50.577Z,-0.43
2022-12-11T12:36:27.226Z,-0.08
2022-12-11T12:39:01.139Z,0.14
2022-12-11T12:41:44.286Z,0.21
2022-12-11T12:44:19.790Z,-0.16
2022-12-11T12:46:57.562Z,-0.36
2022-12-11T12:49:41.104Z,0.34
2022-12-11T12:52:16.789Z,0.15
2022-12-11T12:55:09.537Z,0.57
2022-12-11T12:57:41.306Z,0.60
2022-12-11T13:00:15.096Z,0.73
2022-12-11T13:02:53.858Z,0.44
2022-12-11T13:05:26.100Z,0.44
2022-12-11T13:07:58.917Z,0.44
2022-12-11T13:10:33.521Z,0.32
2022-12-11T13:13:05.107Z,0.38
2022-12-11T13:15:40.654Z,0.18
2022-12-11T13:18:36.023Z,-0.06
2022-12-11T13:21:26.757Z,-0.77
2022-12-11T13:23:57.395Z,-0.49
2022-12-11T13:26:36.958Z,-0.60
2022-12-11T13:29:06.880Z,-1.00
2022-12-11T13:31:40.864Z,-0.51
2022-12-11T13:34:18.805Z,-0.54
2022-12-11T13:36:52.952Z,-0.06
2022-12-11T13:39:27.557Z,0.01
2022-12-11T13:42:02.475Z,-0.16
2022-12-11T13:44:38.204Z,-0.31
2022-12-11T13:47:17.010Z,-1.13
2022-12-11T13:49:50.993Z,-1.02
2022-12-11T13:52:22.848Z,-0.48
2022-12-11T13:54:55.686Z,-0.64
2022-12-11T13:57:26.836Z,-0.58
2022-12-11T13:59:59.557Z,-0.54
2022-12-11T14:02:36.622Z,-0.50
2022-12-11T14:05:10.200Z,-0.59
2022-12-11T14:07:44.398Z,-0.64
2022-12-11T14:10:20.743Z,-0.80
2022-12-11T14:12:57.331Z,-0.57
2022-12-11T14:15:27.553Z,-0.56
2022-12-11T14:18:01.612Z,-0.70
2022-12-11T14:20:33.591Z,-0.62
2022-12-11T14:23:08.086Z,-0.77
2022-12-11T14:25:37.858Z,-0.83
2022-12-11T14:28:17.033Z,-1.20
2022-12-11T14:30:52.098Z,-0.94
2022-12-11T14:33:27.376Z,-0.95
2022-12-11T14:35:58.371Z,-1.04
2022-12-11T14:38:31.991Z,-1.17
2022-12-11T14:41:06.152Z,-1.47
2022-12-11T14:43:42.303Z,-1.23
2022-12-11T14:46:18.662Z,-1.12
2022-12-11T14:49:00.588Z,-0.91
2022-12-11T14:51:34.025Z,-1.26
2022-12-11T14:54:06.553Z,-1.09
2022-12-11T14:56:36.932Z,-1.12
2022-12-11T14:59:10.132Z,-1.47
2022-12-11T15:01:40.395Z,-1.40
2022-12-11T15:04:25.445Z,-1.16
2022-12-11T15:06:55.830Z,-1.20
2022-12-11T15:09:29.638Z,-0.96
2022-12-11T15:12:02.173Z,-1.23
2022-12-11T15:14:33.514Z,-1.53
2022-12-11T15:17:03.489Z,-1.68
2022-12-11T15:19:38.178Z,-1.40
2022-12-11T15:22:11.235Z,-1.60
2022-12-11T15:24:44.595Z,-1.54
2022-12-11T15:27:27.556Z,-1.41
2022-12-11T15:29:57.353Z,-1.65
2022-12-11T15:32:28.880Z,-1.84
2022-12-11T15:35:02.675Z,-1.58
2022-12-11T15:37:36.239Z,-1.63
2022-12-11T15:40:07.916Z,-1.16
2022-12-11T15:42:39.928Z,-1.08
2022-12-11T15:45:14.821Z,-1.11
2022-12-11T15:47:45.879Z,-1.37
2022-12-11T15:50:20.947Z,-1.43
2022-12-11T15:52:51.589Z,-1.92
2022-12-11T15:55:22.387Z,-1.73
2022-12-11T15:57:54.558Z,-1.03
2022-12-11T16:00:24.941Z,-1.05
2022-12-11T16:02:54.776Z,-0.89
2022-12-11T16:05:27.440Z,-1.29
2022-12-11T16:07:59.653Z,-1.38
2022-12-11T16:10:30.034Z,-1.65
2022-12-11T16:12:59.909Z,-1.19
2022-12-11T16:15:30.056Z,-1.26
2022-12-11T16:18:04.474Z,-1.23
2022-12-11T16:20:38.340Z,-0.65
2022-12-11T16:23:08.410Z,-0.59
2022-12-11T16:25:40.951Z,-0.94
2022-12-11T16:28:11.631Z,-1.27
2022-12-11T16:30:43.554Z,-1.37
2022-12-11T16:33:14.125Z,-1.02
2022-12-11T16:35:46.444Z,-0.72
2022-12-11T16:38:16.156Z,-0.69
2022-12-11T16:40:45.811Z,-0.60
2022-12-11T16:43:15.487Z,-0.58
2022-12-11T16:45:45.993Z,-0.83
2022-12-11T16:48:15.720Z,-1.39
2022-12-11T16:50:48.085Z,-1.92
2022-12-11T16:53:17.818Z,-1.68
2022-12-11T16:55:47.599Z,-1.40
2022-12-11T16:58:20.189Z,-1.22
2022-12-11T17:00:50.749Z,-0.76
2022-12-11T17:03:21.235Z,-1.09
2022-12-11T17:05:53.606Z,-0.71
2022-12-11T17:08:23.351Z,-0.59
2022-12-11T17:10:54.664Z,-0.60
2022-12-11T17:13:24.373Z,-0.68
2022-12-11T17:15:54.199Z,-0.51
2022-12-11T17:18:23.927Z,-0.57
2022-12-11T17:20:56.185Z,-0.82
2022-12-11T17:23:26.967Z,-0.80
2022-12-11T17:25:56.691Z,-0.47
2022-12-11T17:28:26.393Z,-0.63
2022-12-11T17:30:56.188Z,-1.01
2022-12-11T17:33:25.999Z,-0.39
2022-12-11T17:35:58.355Z,-0.38
2022-12-11T17:38:28.461Z,-0.84
2022-12-11T17:40:58.501Z,-1.41
2022-12-11T17:43:28.298Z,-1.41
2022-12-11T17:45:58.061Z,-1.70
2022-12-11T17:48:28.094Z,-0.84
2022-12-11T17:51:00.506Z,-1.15
2022-12-11T17:53:30.503Z,-0.86
2022-12-11T17:56:02.787Z,-0.78
2022-12-11T17:58:33.713Z,-0.83
2022-12-11T18:01:03.988Z,-0.84
2022-12-11T18:03:33.719Z,-1.00
2022-12-11T18:06:08.133Z,-0.80
2022-12-11T18:08:38.298Z,-1.08
2022-12-11T18:11:09.239Z,-0.96
2022-12-11T18:13:39.075Z,-1.00
2022-12-11T18:16:11.768Z,-1.28
2022-12-11T18:18:41.911Z,-1.43
2022-12-11T18:21:15.937Z,-1.78
2022-12-11T18:23:46.219Z,-1.73
2022-12-11T18:26:17.311Z,-1.70
2022-12-11T18:28:48.226Z,-1.77
2022-12-11T18:31:18.691Z,-1.54
2022-12-11T18:33:48.846Z,-1.51
2022-12-11T18:36:22.611Z,-1.92
2022-12-11T18:38:52.517Z,-2.03
2022-12-11T18:41:22.824Z,-2.07
2022-12-11T18:43:54.837Z,-2.23
2022-12-11T18:46:24.767Z,-2.06
2022-12-11T18:48:54.776Z,-1.71
2022-12-11T18:51:27.202Z,-1.55
2022-12-11T18:53:57.085Z,-1.82
2022-12-11T18:56:26.873Z,-1.70
2022-12-11T18:58:56.522Z,-1.49
2022-12-11T19:01:28.959Z,-1.60
2022-12-11T19:04:05.376Z,-1.79
2022-12-11T19:06:40.085Z,-1.95
2022-12-11T19:09:10.448Z,-2.27
2022-12-11T19:11:43.063Z,-2.03
2022-12-11T19:14:13.899Z,-1.93
2022-12-11T19:16:45.816Z,-2.12
2022-12-11T19:19:17.966Z,-2.10
2022-12-11T19:21:51.235Z,-1.89
2022-12-11T19:24:24.106Z,-1.76
2022-12-11T19:26:54.302Z,-1.61
2022-12-11T19:29:26.021Z,-1.59
2022-12-11T19:31:55.937Z,-1.71
2022-12-11T19:34:26.072Z,-1.78
2022-12-11T19:36:58.834Z,-1.79
2022-12-11T19:39:28.716Z,-1.78
2022-12-11T19:41:58.543Z,-1.72
2022-12-11T19:44:28.323Z,-1.78
2022-12-11T19:46:58.072Z,-1.69
2022-12-11T19:49:27.849Z,-1.56
2022-12-11T19:52:00.187Z,-1.46
2022-12-11T19:54:29.893Z,-1.50
2022-12-11T19:56:59.640Z,-1.76
2022-12-11T19:59:29.392Z,-1.33
2022-12-11T20:01:59.111Z,-1.17
2022-12-11T20:04:29.895Z,-1.18
2022-12-11T20:07:02.205Z,-1.19
2022-12-11T20:09:33.689Z,-1.03
2022-12-11T20:12:06.166Z,-1.12
2022-12-11T20:14:35.852Z,-1.39
2022-12-11T20:17:14.295Z,-1.47
2022-12-11T20:19:45.047Z,-1.23
2022-12-11T20:22:17.334Z,-1.61
2022-12-11T20:24:47.034Z,-0.93
2022-12-11T20:27:16.764Z,-1.22
2022-12-11T20:29:46.548Z,-1.06
2022-12-11T20:32:16.383Z,-1.27
2022-12-11T20:34:46.789Z,-1.35
2022-12-11T20:37:19.611Z,-1.26
2022-12-11T20:39:49.462Z,-1.47
2022-12-11T20:42:19.204Z,-1.55
2022-12-11T20:44:49.640Z,-1.67
2022-12-11T20:47:19.838Z,-1.80
2022-12-11T20:49:49.820Z,-2.07
2022-12-11T20:52:22.565Z,-1.82
2022-12-11T20:54:52.266Z,-1.77
2022-12-11T20:57:22.135Z,-2.21
2022-12-11T20:59:51.913Z,-1.93
2022-12-11T21:02:21.846Z,-1.78
2022-12-11T21:04:51.619Z,-1.14
2022-12-11T21:07:23.899Z,-1.06
2022-12-11T21:09:53.572Z,-1.44
2022-12-11T21:12:26.972Z,-1.65
2022-12-11T21:15:00.977Z,-1.14
2022-12-11T21:17:30.729Z,-1.30
2022-12-11T21:20:00.460Z,-2.07
2022-12-11T21:22:32.876Z,-2.87
2022-12-11T21:25:03.222Z,-2.92
2022-12-11T21:27:34.173Z,-2.65
2022-12-11T21:30:04.840Z,-3.28
2022-12-11T21:32:35.354Z,-3.08
2022-12-11T21:35:05.117Z,-2.85
2022-12-11T21:37:37.409Z,-2.76
2022-12-11T21:40:08.085Z,-3.41
2022-12-11T21:42:37.832Z,-2.72
2022-12-11T21:47:58.976Z,-2.49
2022-12-11T21:50:28.682Z,-2.16
2022-12-11T21:53:02.126Z,-2.47
2022-12-11T21:55:31.940Z,-2.94
2022-12-11T21:58:01.702Z,-2.59
2022-12-11T22:00:31.447Z,-3.06
2022-12-11T22:03:01.145Z,-2.70
2022-12-11T22:05:31.862Z,-2.95
2022-12-11T22:08:04.272Z,-3.42
2022-12-11T22:10:34.108Z,-3.10
2022-12-11T22:13:03.857Z,-3.15
2022-12-11T22:15:33.561Z,-2.40
2022-12-11T22:18:03.245Z,-1.91
2022-12-11T22:20:34.129Z,-2.17
2022-12-11T22:23:06.398Z,-1.66
2022-12-11T22:25:36.486Z,-2.41
2022-12-11T22:28:07.150Z,-2.42
2022-12-11T22:30:36.929Z,-3.16
2022-12-11T22:33:06.914Z,-3.78
2022-12-11T22:35:36.638Z,-3.30
2022-12-11T22:38:09.276Z,-3.58
2022-12-11T22:40:43.579Z,-2.93
2022-12-11T22:43:13.259Z,-3.02
2022-12-11T22:45:43.196Z,-3.45
2022-12-11T22:48:13.187Z,-3.29
2022-12-11T22:50:44.514Z,-4.07
2022-12-11T22:53:16.865Z,-4.38
2022-12-11T22:55:46.579Z,-4.45
2022-12-11T22:58:21.636Z,-4.25
2022-12-11T23:00:51.684Z,-4.03
2022-12-11T23:03:21.416Z,-3.82
2022-12-11T23:05:51.189Z,-3.91
2022-12-11T23:08:23.577Z,-3.61
2022-12-11T23:10:56.377Z,-3.93
2022-12-11T23:13:26.071Z,-3.66
2022-12-11T23:15:56.123Z,-3.57
2022-12-11T23:18:25.825Z,-3.78
2022-12-11T23:20:55.519Z,-3.54
2022-12-11T23:23:27.881Z,-3.33
2022-12-11T23:25:57.923Z,-3.89
2022-12-11T23:28:27.637Z,-3.30
2022-12-11T23:30:57.493Z,-3.56
2022-12-11T23:33:28.995Z,-3.11
2022-12-11T23:36:00.075Z,-3.12
2022-12-11T23:38:32.566Z,-3.66
2022-12-11T23:41:05.155Z,-3.56
2022-12-11T23:43:36.263Z,-3.90
2022-12-11T23:46:06.667Z,-4.38
2022-12-11T23:48:36.500Z,-3.76
2022-12-11T23:51:08.697Z,-4.52
2022-12-11T23:53:41.226Z,-4.38
2022-12-11T23:56:13.525Z,-4.24
2022-12-11T23:58:43.422Z,-3.97
